Boston, Massachusetts
Current Conditions -  °F | °C
As of 4:54 AM on Saturday 01 Nov 2014 (Local Time) from KBOS Reporting Station
Overcast Overcast  
Wind Chill: 37°   Ceiling: 9000
Heat Index: 44°   Visibility: 10mi
Dew Point: 34°   Wind: 16mph
Humidity: 68%   Direction: 350°N
Pressure: 29.9"   Gusts: NA
Location:  42.36°N, 71.06°W
Report Text: KBOS 010854Z 35014KT 10SM OVC090 07/01 A2990 RMK AO2 SLP124 T00670011 58009
Loading
Personal Weather Stations






























Interactive Weather Map
Tropical Storm Tracking
New forecast layout! Learn more

10-Day Weather Forecast

Advertisements
Track Severe Weather on mobile